Saturday, July 21, 2018, 8:40 PM EDT
Back to Local

KSFM, Sanford, Sanford Regional Airport

Location: Sanford, ME, United States Lat: 43.4
Local Time: 8:40 PM EDT ( 0:40 GMT) Lon: -70.717
Time Zone: US/Eastern Elev: 242 ft

Show me the last for .
Show Decoded

2018-07-21 19:56 METAR KSFM 212356Z AUTO 00000KT 10SM CLR 18/15 A3017 RMK AO2 SLP219 T01830150
                 10239 20183 53006 =
2018-07-21 18:56 METAR KSFM 212256Z AUTO 12005KT 10SM CLR 19/13 A3016 RMK AO2 SLP216 T01940133 =
2018-07-21 17:56 METAR KSFM 212156Z AUTO VRB04KT 10SM CLR 21/13 A3015 RMK AO2 SLP211 T02110133 =
2018-07-21 16:56 METAR KSFM 212056Z AUTO 11008KT 10SM CLR 23/13 A3015 RMK AO2 SLP213 T02280128
                 56006 =
2018-07-21 15:56 METAR KSFM 211956Z AUTO VRB06KT 10SM CLR 24/13 A3016 RMK AO2 SLP216 T02390133 =
2018-07-21 14:56 METAR KSFM 211856Z AUTO VRB04KT 10SM CLR 24/13 A3017 RMK AO2 SLP218 T02390133 =
2018-07-21 13:56 METAR KSFM 211756Z AUTO VRB03KT 10SM CLR 23/14 A3017 RMK AO2 SLP221 T02330139
                 10244 20172 58006 =
2018-07-21 12:56 METAR KSFM 211656Z AUTO VRB04KT 10SM CLR 23/14 A3019 RMK AO2 SLP226 T02330139 =
2018-07-21 11:56 METAR KSFM 211556Z AUTO 08007KT 10SM CLR 24/13 A3019 RMK AO2 SLP225 T02390133 =
2018-07-21 10:56 METAR KSFM 211456Z AUTO VRB03KT 10SM CLR 23/14 A3019 RMK AO2 SLP226 T02280139
                 53001 =
2018-07-21 09:56 METAR KSFM 211356Z AUTO 12006KT 10SM CLR 23/14 A3019 RMK AO2 SLP224 T02280139 =
2018-07-21 08:56 METAR KSFM 211256Z AUTO 00000KT 10SM CLR 21/16 A3019 RMK AO2 SLP225 T02060161 =
2018-07-21 07:56 METAR KSFM 211156Z AUTO 00000KT 10SM CLR 17/15 A3019 RMK AO2 SLP225 60000
                 T01720150 10172 20072 50005 =
2018-07-21 06:56 METAR KSFM 211056Z AUTO 03003KT 10SM SCT010 14/13 A3019 RMK AO2 SLP226 T01440133
                 =
2018-07-21 06:33 METAR KSFM 211033Z AUTO 00000KT 10SM BKN012 OVC026 14/13 A3019 RMK AO2 =
2018-07-21 05:56 METAR KSFM 210956Z AUTO 00000KT 10SM FEW002 SCT022 09/08 A3019 RMK AO2 RAE04
                 SLP228 P0000 T00890083 =
2018-07-21 05:47 METAR KSFM 210947Z AUTO 00000KT 10SM FEW002 08/08 A3019 RMK AO2 RAE04 P0000 =
2018-07-21 05:08 METAR KSFM 210908Z AUTO 24003KT 10SM CLR 07/07 A3018 RMK AO2 RAE04 P0000 =
2018-07-21 04:56 METAR KSFM 210856Z AUTO 00000KT 2 1/2SM -RA BR CLR 07/07 A3017 RMK AO2 RAE07B35
                 SLP221 P0000 60000 T00720072 56001 =
2018-07-21 04:45 METAR KSFM 210845Z AUTO 00000KT 1 3/4SM -RA BR CLR 07/07 A3018 RMK AO2 RAE07B35
                 P0000 =
2018-07-21 04:42 METAR KSFM 210842Z AUTO 00000KT 3SM -RA BR CLR 08/07 A3018 RMK AO2 RAE07B35
                 P0000 =
2018-07-21 04:32 METAR KSFM 210832Z AUTO 00000KT 1 3/4SM BR CLR 07/07 A3018 RMK AO2 VIS 1/4V5
                 RAE07 P0000 =
2018-07-21 04:01 METAR KSFM 210801Z AUTO 25003KT 3SM -RA BR CLR 08/08 A3018 RMK AO2 P0000 =
2018-07-21 03:56 METAR KSFM 210756Z AUTO 00000KT 1 1/4SM -RA BR CLR 07/07 A3018 RMK AO2 VIS 1/2V5
                 RAB44 SLP222 P0000 T00720072 =
2018-07-21 03:52 METAR KSFM 210752Z AUTO 24003KT 1SM -RA BR CLR 08/07 A3018 RMK AO2 RAB44 P0000
                 RVRNO =
2018-07-21 03:46 METAR KSFM 210746Z AUTO 23003KT 2 1/2SM -RA BR CLR 07/07 A3018 RMK AO2 VIS 1/2V5
                 RAB44 P0000 =
2018-07-21 03:42 METAR KSFM 210742Z AUTO 00000KT 1SM BR CLR 08/07 A3018 RMK AO2 RVRNO =
2018-07-21 03:35 METAR KSFM 210735Z AUTO 00000KT 1 1/4SM BR CLR 08/07 A3017 RMK AO2 =
2018-07-21 02:56 METAR KSFM 210656Z AUTO 25003KT 10SM CLR 08/07 A3017 RMK AO2 SLP220 T00780072 =
2018-07-21 02:48 METAR KSFM 210648Z AUTO 00000KT 3SM BR CLR 08/08 A3017 RMK AO2 =
2018-07-21 02:45 METAR KSFM 210645Z AUTO 24003KT 1 3/4SM BR CLR 08/07 A3017 RMK AO2 =
2018-07-21 01:56 METAR KSFM 210556Z AUTO 00000KT 10SM CLR 08/08 A3018 RMK AO2 SLP221 T00830083
                 10206 20083 56004 =
2018-07-21 00:56 METAR KSFM 210456Z AUTO 00000KT 9SM CLR 09/09 A3018 RMK AO2 SLP222 T00940089 =
2018-07-20 23:56 METAR KSFM 210356Z AUTO 00000KT 10SM CLR 11/10 A3018 RMK AO2 SLP222 T01060100
                 402780078 =
2018-07-20 22:56 METAR KSFM 210256Z AUTO 00000KT 10SM CLR 11/11 A3019 RMK AO2 SLP225 T01110106
                 50006 =
2018-07-20 21:56 METAR KSFM 210156Z AUTO 00000KT 10SM CLR 13/12 A3019 RMK AO2 SLP226 T01330122 =
2018-07-20 20:56 METAR KSFM 210056Z AUTO 00000KT 10SM CLR 16/13 A3018 RMK AO2 SLP223 T01560133 =

Support USWX by starting your Amazon purchase here.